createdAt,value
2018-08-30T00:00:13.813Z,14.50
2018-08-30T00:02:44.062Z,14.40
2018-08-30T00:05:14.542Z,14.40
2018-08-30T00:07:44.716Z,14.30
2018-08-30T00:10:15.152Z,14.30
2018-08-30T00:12:45.594Z,14.40
2018-08-30T00:15:16.109Z,14.30
2018-08-30T00:17:46.578Z,14.30
2018-08-30T00:20:16.893Z,14.30
2018-08-30T00:27:46.719Z,14.30
2018-08-30T00:30:17.133Z,14.20
2018-08-30T00:32:47.454Z,14.10
2018-08-30T00:35:18.018Z,14.10
2018-08-30T00:37:48.555Z,14.10
2018-08-30T00:40:18.845Z,14.10
2018-08-30T00:42:49.353Z,14.10
2018-08-30T00:45:19.937Z,14.00
2018-08-30T00:47:50.518Z,13.90
2018-08-30T00:50:21.086Z,13.90
2018-08-30T00:52:51.485Z,14.00
2018-08-30T00:55:21.896Z,14.00
2018-08-30T00:57:52.321Z,13.90
2018-08-30T01:00:22.761Z,14.00
2018-08-30T01:02:53.201Z,13.90
2018-08-30T01:05:23.562Z,13.90
2018-08-30T01:07:53.925Z,14.00
2018-08-30T01:10:24.498Z,13.90
2018-08-30T01:12:55.973Z,13.90
2018-08-30T01:15:27.558Z,13.90
2018-08-30T01:17:57.934Z,13.90
2018-08-30T01:20:28.622Z,13.90
2018-08-30T01:22:59.302Z,13.90
2018-08-30T01:25:29.697Z,13.80
2018-08-30T01:28:00.222Z,13.90
2018-08-30T01:33:00.263Z,13.80
2018-08-30T01:35:30.806Z,13.70
2018-08-30T01:40:30.801Z,13.70
2018-08-30T01:43:01.370Z,13.70
2018-08-30T01:45:31.756Z,13.70
2018-08-30T01:48:02.149Z,13.60
2018-08-30T01:50:32.469Z,13.50
2018-08-30T01:53:02.973Z,13.50
2018-08-30T01:55:33.253Z,13.40
2018-08-30T01:58:03.641Z,13.40
2018-08-30T02:00:33.901Z,13.20
2018-08-30T02:03:04.345Z,13.20
2018-08-30T02:05:34.589Z,13.20
2018-08-30T02:10:34.502Z,13.00
2018-08-30T02:13:04.922Z,13.20
2018-08-30T02:20:34.905Z,13.10
2018-08-30T02:23:05.194Z,13.00
2018-08-30T02:25:35.621Z,13.00
2018-08-30T02:28:06.358Z,13.00
2018-08-30T02:30:36.920Z,12.90
2018-08-30T02:33:07.248Z,12.80
2018-08-30T02:35:37.533Z,12.80
2018-08-30T02:38:07.903Z,12.80
2018-08-30T02:40:38.345Z,12.70
2018-08-30T02:43:08.533Z,12.60
2018-08-30T02:48:08.946Z,12.50
2018-08-30T02:50:39.285Z,12.60
2018-08-30T02:53:09.711Z,12.70
2018-08-30T02:58:09.686Z,12.70
2018-08-30T03:00:40.162Z,12.90
2018-08-30T03:03:10.682Z,13.00
2018-08-30T03:05:41.365Z,13.00
2018-08-30T03:08:12.077Z,13.00
2018-08-30T03:13:12.622Z,13.00
2018-08-30T03:20:42.326Z,12.90
2018-08-30T03:23:12.762Z,12.90
2018-08-30T03:25:43.193Z,12.90
2018-08-30T03:28:13.530Z,12.80
2018-08-30T03:33:13.678Z,12.60
2018-08-30T03:35:44.057Z,12.60
2018-08-30T03:38:14.366Z,12.60
2018-08-30T03:40:44.834Z,12.60
2018-08-30T03:43:15.273Z,12.60
2018-08-30T03:45:45.650Z,12.60
2018-08-30T03:48:15.897Z,12.60
2018-08-30T03:50:46.210Z,12.60
2018-08-30T03:53:16.596Z,12.60
2018-08-30T03:55:47.057Z,12.60
2018-08-30T03:58:17.326Z,12.60
2018-08-30T04:00:47.551Z,12.50
2018-08-30T04:03:17.974Z,12.60
2018-08-30T04:05:48.377Z,12.70
2018-08-30T04:08:18.681Z,12.70
2018-08-30T04:10:49.100Z,12.70
2018-08-30T04:13:19.441Z,12.80
2018-08-30T04:15:49.876Z,12.80
2018-08-30T04:18:20.300Z,12.90
2018-08-30T04:20:50.577Z,12.90
2018-08-30T04:23:21.770Z,12.90
2018-08-30T04:30:51.394Z,13.00
2018-08-30T04:33:21.777Z,13.00
2018-08-30T04:35:52.162Z,13.00
2018-08-30T04:38:22.710Z,13.00
2018-08-30T04:43:22.816Z,13.10
2018-08-30T04:45:53.153Z,13.10
2018-08-30T04:48:23.486Z,13.20
2018-08-30T04:53:23.447Z,13.30
2018-08-30T04:55:53.909Z,13.30
2018-08-30T04:58:24.486Z,13.30
2018-08-30T05:00:54.929Z,13.40
2018-08-30T05:03:25.545Z,13.50
2018-08-30T05:05:55.993Z,13.50
2018-08-30T05:08:26.985Z,13.50
2018-08-30T05:10:57.562Z,13.60
2018-08-30T05:13:27.862Z,13.60
2018-08-30T05:15:58.450Z,13.70
2018-08-30T05:18:28.921Z,13.80
2018-08-30T05:23:29.358Z,13.70
2018-08-30T05:28:29.500Z,13.90
2018-08-30T05:30:59.818Z,14.00
2018-08-30T05:38:29.962Z,14.20
2018-08-30T05:43:29.998Z,14.40
2018-08-30T05:48:30.042Z,14.60
2018-08-30T05:51:00.422Z,14.70
2018-08-30T05:53:30.898Z,14.80
2018-08-30T05:56:01.453Z,14.80
2018-08-30T05:58:31.953Z,14.90
2018-08-30T06:03:31.985Z,15.00
2018-08-30T06:08:32.126Z,15.20
2018-08-30T06:11:02.663Z,15.30
2018-08-30T06:13:32.964Z,15.40
2018-08-30T06:18:33.310Z,15.60
2018-08-30T06:23:33.429Z,15.90
2018-08-30T06:26:03.726Z,16.10
2018-08-30T06:28:34.066Z,16.20
2018-08-30T06:31:04.504Z,16.40
2018-08-30T06:36:04.662Z,16.80
2018-08-30T06:38:35.207Z,17.00
2018-08-30T06:48:35.105Z,17.10
2018-08-30T06:51:06.086Z,17.20
2018-08-30T06:58:35.835Z,17.80
2018-08-30T07:06:05.529Z,18.40
2018-08-30T07:08:36.186Z,18.70
2018-08-30T07:11:06.655Z,19.10
2018-08-30T07:13:37.037Z,19.40
2018-08-30T07:18:37.634Z,20.00
2018-08-30T07:21:08.041Z,20.10
2018-08-30T07:26:08.329Z,20.70
2018-08-30T07:28:38.719Z,20.90
2018-08-30T07:31:09.184Z,21.10
2018-08-30T07:33:39.611Z,21.10
2018-08-30T07:36:10.027Z,20.90
2018-08-30T07:38:40.430Z,20.90
2018-08-30T07:43:40.339Z,21.20
2018-08-30T07:46:10.604Z,21.40
2018-08-30T07:48:40.992Z,21.30
2018-08-30T07:51:11.413Z,21.40
2018-08-30T07:53:41.789Z,21.50
2018-08-30T07:56:12.141Z,21.70
2018-08-30T07:58:42.524Z,21.90
2018-08-30T08:01:12.725Z,22.00
2018-08-30T08:06:12.697Z,21.70
2018-08-30T08:08:42.985Z,21.70
2018-08-30T08:11:13.264Z,21.70
2018-08-30T08:13:43.917Z,22.00
2018-08-30T08:16:14.387Z,22.20
2018-08-30T08:18:45.046Z,22.30
2018-08-30T08:21:15.351Z,22.30
2018-08-30T08:23:45.674Z,22.20
2018-08-30T08:26:15.973Z,22.10
2018-08-30T08:28:46.250Z,22.40
2018-08-30T08:31:16.556Z,22.60
2018-08-30T08:33:46.897Z,22.60
2018-08-30T08:36:17.250Z,22.70
2018-08-30T08:41:17.259Z,23.10
2018-08-30T08:43:47.962Z,23.30
2018-08-30T08:46:18.237Z,23.40
2018-08-30T08:48:48.564Z,23.60
2018-08-30T08:51:18.924Z,23.70
2018-08-30T08:53:49.364Z,23.80
2018-08-30T08:56:19.630Z,23.80
2018-08-30T08:58:50.108Z,23.50
2018-08-30T09:01:20.597Z,23.60
2018-08-30T09:03:50.941Z,24.10
2018-08-30T09:06:21.346Z,24.10
2018-08-30T09:11:21.250Z,24.40
2018-08-30T09:13:51.630Z,24.30
2018-08-30T09:16:21.964Z,24.50
2018-08-30T09:18:52.399Z,24.80
2018-08-30T09:21:22.841Z,25.10
2018-08-30T09:23:53.314Z,25.00
2018-08-30T09:31:22.682Z,25.20
2018-08-30T09:33:52.969Z,25.30
2018-08-30T09:36:23.329Z,25.30
2018-08-30T09:38:53.608Z,25.10
2018-08-30T09:43:53.632Z,25.50
2018-08-30T09:46:24.025Z,25.60
2018-08-30T09:48:54.358Z,25.50
2018-08-30T09:51:24.833Z,25.40
2018-08-30T09:56:24.721Z,25.50
2018-08-30T09:58:55.281Z,25.60
2018-08-30T10:04:00.517Z,25.80
2018-08-30T10:06:30.829Z,26.30
2018-08-30T10:09:01.101Z,26.10
2018-08-30T10:14:00.994Z,26.20
2018-08-30T10:16:31.311Z,26.00
2018-08-30T10:19:01.702Z,25.70
2018-08-30T10:21:32.057Z,25.50
2018-08-30T10:24:02.954Z,25.80
2018-08-30T10:26:33.191Z,26.20
2018-08-30T10:29:03.522Z,26.30
2018-08-30T10:31:33.709Z,26.40
2018-08-30T10:34:04.147Z,26.40
2018-08-30T10:36:35.002Z,26.50
2018-08-30T10:39:06.939Z,26.60
2018-08-30T10:41:37.258Z,26.80
2018-08-30T10:44:08.062Z,26.90
2018-08-30T10:46:38.469Z,26.50
2018-08-30T10:49:08.822Z,26.50
2018-08-30T10:54:08.689Z,26.80
2018-08-30T10:56:38.908Z,26.80
2018-08-30T10:59:09.206Z,27.00
2018-08-30T11:04:09.448Z,27.80
2018-08-30T11:06:40.099Z,27.90
2018-08-30T11:09:10.786Z,27.60
2018-08-30T11:11:41.113Z,27.30
2018-08-30T11:14:11.689Z,27.20
2018-08-30T11:16:42.034Z,27.70
2018-08-30T11:19:12.237Z,27.20
2018-08-30T11:21:42.540Z,27.10
2018-08-30T11:24:12.880Z,27.40
2018-08-30T11:26:43.356Z,27.70
2018-08-30T11:29:13.675Z,27.80
2018-08-30T11:31:44.061Z,27.90
2018-08-30T11:34:14.324Z,27.90
2018-08-30T11:36:44.715Z,28.20
2018-08-30T11:39:14.929Z,28.20
2018-08-30T11:41:45.367Z,28.10
2018-08-30T11:44:15.741Z,27.70
2018-08-30T11:49:15.778Z,27.30
2018-08-30T11:54:15.984Z,27.30
2018-08-30T11:56:46.443Z,27.20
2018-08-30T12:06:45.920Z,27.60
2018-08-30T12:09:16.389Z,27.30
2018-08-30T12:11:47.033Z,26.70
2018-08-30T12:14:17.245Z,26.90
2018-08-30T12:16:47.514Z,27.10
2018-08-30T12:19:17.786Z,26.80
2018-08-30T12:21:48.153Z,26.60
2018-08-30T12:26:48.277Z,26.20
2018-08-30T12:29:18.988Z,26.00
2018-08-30T12:34:19.129Z,25.80
2018-08-30T12:36:49.650Z,25.90
2018-08-30T12:39:20.129Z,26.00
2018-08-30T12:41:50.699Z,25.90
2018-08-30T12:44:21.049Z,25.40
2018-08-30T12:46:51.702Z,25.10
2018-08-30T12:49:22.009Z,25.00
2018-08-30T12:51:52.633Z,25.00
2018-08-30T12:54:22.809Z,25.10
2018-08-30T12:56:53.275Z,25.10
2018-08-30T12:59:54.218Z,25.10
2018-08-30T13:02:24.661Z,25.00
2018-08-30T13:04:55.014Z,24.80
2018-08-30T13:07:25.644Z,21.70
2018-08-30T13:09:56.431Z,20.20
2018-08-30T13:14:56.261Z,19.40
2018-08-30T13:19:57.345Z,19.10
2018-08-30T13:22:27.746Z,18.90
2018-08-30T13:27:28.131Z,18.80
2018-08-30T13:29:58.584Z,18.80
2018-08-30T13:34:58.700Z,18.90
2018-08-30T13:37:28.999Z,18.90
2018-08-30T13:39:59.560Z,19.00
2018-08-30T13:42:29.707Z,19.10
2018-08-30T13:47:29.760Z,19.20
2018-08-30T13:54:59.604Z,19.90
2018-08-30T13:57:30.123Z,20.10
2018-08-30T14:00:00.689Z,20.30
2018-08-30T14:05:00.204Z,20.40
2018-08-30T14:07:31.116Z,20.40
2018-08-30T14:10:01.773Z,20.40
2018-08-30T14:12:31.844Z,20.30
2018-08-30T14:15:02.365Z,20.30
2018-08-30T14:17:32.170Z,20.30
2018-08-30T14:20:02.492Z,20.20
2018-08-30T14:22:32.857Z,20.10
2018-08-30T14:25:03.211Z,20.10
2018-08-30T14:27:33.949Z,20.00
2018-08-30T14:37:33.332Z,19.70
2018-08-30T14:40:03.706Z,19.60
2018-08-30T14:42:33.968Z,19.50
2018-08-30T14:45:04.879Z,19.50
2018-08-30T14:47:35.294Z,19.30
2018-08-30T14:50:05.689Z,19.10
2018-08-30T14:52:36.146Z,18.90
2018-08-30T14:55:06.821Z,18.80
2018-08-30T14:57:37.035Z,18.70
2018-08-30T15:00:07.329Z,18.60
2018-08-30T15:05:07.429Z,18.70
2018-08-30T15:07:37.801Z,18.60
2018-08-30T15:15:07.991Z,18.60
2018-08-30T15:17:38.301Z,18.60
2018-08-30T15:20:08.804Z,18.60
2018-08-30T15:22:39.062Z,18.70
2018-08-30T15:25:09.431Z,18.70
2018-08-30T15:30:09.466Z,18.70
2018-08-30T15:35:09.542Z,18.60
2018-08-30T15:37:39.833Z,18.60
2018-08-30T15:42:39.701Z,18.50
2018-08-30T15:45:10.420Z,18.50
2018-08-30T15:47:40.617Z,18.50
2018-08-30T15:52:41.001Z,18.40
2018-08-30T15:55:11.416Z,18.40
2018-08-30T15:57:41.810Z,18.30
2018-08-30T16:02:41.777Z,18.00
2018-08-30T16:05:12.137Z,18.00
2018-08-30T16:07:42.817Z,18.00
2018-08-30T16:10:14.109Z,17.90
2018-08-30T16:12:44.822Z,17.90
2018-08-30T16:15:15.318Z,17.80
2018-08-30T16:17:45.541Z,17.80
2018-08-30T16:20:15.905Z,17.70
2018-08-30T16:22:59.887Z,17.80
2018-08-30T16:25:30.172Z,17.80
2018-08-30T16:28:00.785Z,17.70
2018-08-30T16:30:31.357Z,17.60
2018-08-30T16:33:01.666Z,17.60
2018-08-30T16:38:01.594Z,17.50
2018-08-30T16:40:31.841Z,17.50
2018-08-30T16:45:31.801Z,17.50
2018-08-30T16:48:02.013Z,17.50
2018-08-30T16:55:31.862Z,17.50
2018-08-30T17:00:31.902Z,17.70
2018-08-30T17:05:32.005Z,17.60
2018-08-30T17:08:02.381Z,17.60
2018-08-30T17:10:32.794Z,17.50
2018-08-30T17:13:03.213Z,17.50
2018-08-30T17:15:33.563Z,17.50
2018-08-30T17:18:03.611Z,17.40
2018-08-30T17:20:48.710Z,17.40
2018-08-30T17:25:48.762Z,17.30
2018-08-30T17:28:19.146Z,17.20
2018-08-30T17:30:49.586Z,17.20
2018-08-30T17:35:49.508Z,17.10
2018-08-30T17:38:19.822Z,17.00
2018-08-30T17:40:50.195Z,17.00
2018-08-30T17:43:20.412Z,17.00
2018-08-30T17:45:50.734Z,17.10
2018-08-30T17:48:21.028Z,17.10
2018-08-30T17:50:51.386Z,17.10
2018-08-30T17:53:21.828Z,17.10
2018-08-30T17:55:52.380Z,17.10
2018-08-30T17:58:22.853Z,17.10
2018-08-30T18:03:22.956Z,17.10
2018-08-30T18:05:53.351Z,17.10
2018-08-30T18:08:23.605Z,17.10
2018-08-30T18:10:53.991Z,17.10
2018-08-30T18:13:24.270Z,17.10
2018-08-30T18:15:54.700Z,17.10
2018-08-30T18:18:25.151Z,17.10
2018-08-30T18:25:54.822Z,17.10
2018-08-30T18:28:25.145Z,17.10
2018-08-30T18:30:55.735Z,17.10
2018-08-30T18:38:25.908Z,17.00
2018-08-30T18:40:56.650Z,17.00
2018-08-30T18:43:27.106Z,17.00
2018-08-30T18:45:57.713Z,17.00
2018-08-30T18:48:28.232Z,17.00
2018-08-30T18:50:58.706Z,17.00
2018-08-30T18:53:29.173Z,17.00
2018-08-30T18:58:29.463Z,17.00
2018-08-30T19:01:00.150Z,17.00
2018-08-30T19:03:30.753Z,16.90
2018-08-30T19:06:01.195Z,16.90
2018-08-30T19:08:31.637Z,16.90
2018-08-30T19:13:37.888Z,16.90
2018-08-30T19:18:48.551Z,16.80
2018-08-30T19:21:19.016Z,16.70
2018-08-30T19:23:49.530Z,16.70
2018-08-30T19:28:49.997Z,16.60
2018-08-30T19:31:20.482Z,16.60
2018-08-30T19:33:51.651Z,16.60
2018-08-30T19:38:57.261Z,16.60
2018-08-30T19:41:27.714Z,16.60
2018-08-30T19:43:58.211Z,16.60
2018-08-30T19:46:28.788Z,16.60
2018-08-30T19:51:29.346Z,16.60
2018-08-30T19:58:59.513Z,16.50
2018-08-30T20:01:29.893Z,16.50
2018-08-30T20:04:00.449Z,16.50
2018-08-30T20:06:30.950Z,16.40
2018-08-30T20:09:01.405Z,16.40
2018-08-30T20:16:31.005Z,16.40
2018-08-30T20:19:01.830Z,16.30
2018-08-30T20:21:32.385Z,16.30
2018-08-30T20:24:02.958Z,16.30
2018-08-30T20:26:33.337Z,16.20
2018-08-30T20:29:03.781Z,16.20
2018-08-30T20:31:34.185Z,16.10
2018-08-30T20:34:04.733Z,16.10
2018-08-30T20:36:35.216Z,16.10
2018-08-30T20:39:06.555Z,16.00
2018-08-30T20:41:37.225Z,16.00
2018-08-30T20:44:07.768Z,16.00
2018-08-30T20:46:38.366Z,16.00
2018-08-30T20:49:08.782Z,16.00
2018-08-30T20:51:39.166Z,16.00
2018-08-30T20:56:39.408Z,16.00
2018-08-30T21:04:23.413Z,16.00
2018-08-30T21:06:53.961Z,16.00
2018-08-30T21:09:24.449Z,15.90
2018-08-30T21:11:54.933Z,15.90
2018-08-30T21:14:25.342Z,15.90
2018-08-30T21:16:55.736Z,15.90
2018-08-30T21:19:26.230Z,15.80
2018-08-30T21:21:56.547Z,15.80
2018-08-30T21:24:27.125Z,15.80
2018-08-30T21:26:57.479Z,15.80
2018-08-30T21:29:27.758Z,15.80
2018-08-30T21:31:58.141Z,15.80
2018-08-30T21:34:28.646Z,15.80
2018-08-30T21:36:58.871Z,15.70
2018-08-30T21:39:29.229Z,15.60
2018-08-30T21:41:59.706Z,15.50
2018-08-30T21:44:29.930Z,15.50
2018-08-30T21:47:00.405Z,15.50
2018-08-30T21:49:30.929Z,15.40
2018-08-30T21:52:01.653Z,15.40
2018-08-30T21:54:32.053Z,15.30
2018-08-30T21:57:02.428Z,15.30
2018-08-30T21:59:32.842Z,15.30
2018-08-30T22:02:03.436Z,15.30
2018-08-30T22:04:33.905Z,15.30
2018-08-30T22:12:04.004Z,15.30
2018-08-30T22:14:34.616Z,15.20
2018-08-30T22:17:08.848Z,15.20
2018-08-30T22:19:39.992Z,15.20
2018-08-30T22:22:21.696Z,15.20
2018-08-30T22:24:52.073Z,15.20
2018-08-30T22:32:22.833Z,15.10
2018-08-30T22:34:53.366Z,15.10
2018-08-30T22:42:24.522Z,15.10
2018-08-30T22:44:55.657Z,15.10
2018-08-30T22:47:26.315Z,15.20
2018-08-30T22:49:56.585Z,15.20
2018-08-30T22:52:26.854Z,15.10
2018-08-30T22:54:57.182Z,15.10
2018-08-30T22:57:28.295Z,15.00
2018-08-30T22:59:58.936Z,14.90
2018-08-30T23:02:29.439Z,14.90
2018-08-30T23:04:59.810Z,14.90
2018-08-30T23:10:03.058Z,14.80
2018-08-30T23:15:12.822Z,14.70
2018-08-30T23:17:44.579Z,14.70
2018-08-30T23:20:16.129Z,14.70
2018-08-30T23:22:46.493Z,14.70
2018-08-30T23:25:18.640Z,14.70
2018-08-30T23:27:49.943Z,14.70
2018-08-30T23:30:23.751Z,14.70
2018-08-30T23:35:27.712Z,14.60
2018-08-30T23:37:59.169Z,14.50
2018-08-30T23:40:32.570Z,14.50
2018-08-30T23:43:05.070Z,14.50
2018-08-30T23:45:36.369Z,14.50
2018-08-30T23:48:06.901Z,14.50
2018-08-30T23:50:37.289Z,14.50
2018-08-30T23:53:08.809Z,14.50
2018-08-30T23:55:40.019Z,14.40
2018-08-30T23:58:20.992Z,14.40
